.
WxDataArchive / Data Records for 2010-03-02
2010-03-01 March 2010 2010-03-03

Data Records for Tuesday, 02 March 2010

Time	Temp	Chill	HIndex	Humid	Dewpt	 Wind 	HiWind	WindDir	Rain 	Barom 
-----	----	-----	------	-----	-----	------	------	-------	-----	----- 
00:00	28.5	28.5	28.5	84	24.3	0	2	315	0.00	30.123 
00:05	28.5	28.5	28.5	84	24.3	0	2	248	0.00	30.123 
00:10	28.4	28.4	28.4	84	24.2	1	4	248	0.00	30.123 
00:15	28.4	28.4	28.4	85	24.5	0	4	315	0.00	30.116 
00:20	28.2	28.2	28.2	85	24.3	0	3	315	0.00	30.116 
00:25	28.2	28.2	28.2	85	24.3	0	3	315	0.00	30.116 
00:30	28.1	28.1	28.1	85	24.2	0	1	292	0.00	30.118 
00:35	28.1	28.1	28.1	85	24.2	0	2	292	0.00	30.118 
00:40	27.9	27.9	27.9	85	24.0	0	2	292	0.00	30.118 
00:45	27.8	27.8	27.8	86	24.2	0	1	292	0.00	30.114 
00:50	27.8	27.8	27.8	86	24.2	0	1	292	0.00	30.114 
00:55	27.8	27.8	27.8	86	24.2	0	3	292	0.00	30.114 
01:00	27.6	27.6	27.6	86	24.0	0	2	292	0.00	30.111 
01:05	27.5	27.5	27.5	86	23.9	0	1	292	0.00	30.111 
01:10	27.3	27.3	27.3	86	23.7	0	1	292	0.00	30.111 
01:15	27.3	27.3	27.3	86	23.7	0	1	292	0.00	30.109 
01:20	27.2	27.2	27.2	87	23.9	0	1	292	0.00	30.109 
01:25	27.2	27.2	27.2	87	23.9	0	1	292	0.00	30.109 
01:30	27.0	27.0	27.0	87	23.7	0	1	292	0.00	30.107 
01:35	27.0	27.0	27.0	87	23.7	0	1	292	0.00	30.107 
01:40	27.0	27.0	27.0	87	23.7	0	1	292	0.00	30.107 
01:45	26.9	26.9	26.9	88	23.8	0	1	292	0.00	30.103 
01:50	26.9	26.9	26.9	88	23.8	0	2	292	0.00	30.103 
01:55	26.9	26.9	26.9	88	23.8	0	1	292	0.00	30.103 
02:00	26.7	26.7	26.7	88	23.6	0	1	292	0.00	30.099 
02:05	26.7	26.7	26.7	88	23.6	0	1	292	0.00	30.099 
02:10	26.7	26.7	26.7	88	23.6	0	1	292	0.00	30.099 
02:15	26.6	26.6	26.6	88	23.5	0	1	292	0.00	30.096 
02:20	26.6	26.6	26.6	88	23.5	0	1	292	0.00	30.096 
02:25	26.6	26.6	26.6	88	23.5	0	0	---	0.00	30.096 
02:30	26.4	26.4	26.4	88	23.3	0	0	---	0.00	30.097 
02:35	26.3	26.3	26.3	88	23.2	0	0	---	0.00	30.097 
02:40	26.1	26.1	26.1	88	23.0	0	0	---	0.00	30.097 
02:45	26.1	26.1	26.1	89	23.3	0	1	292	0.00	30.093 
02:50	26.0	26.0	26.0	89	23.2	0	0	---	0.00	30.093 
02:55	26.0	26.0	26.0	89	23.2	0	0	---	0.00	30.093 
03:00	25.8	25.8	25.8	89	23.0	0	0	---	0.00	30.087 
03:05	25.8	25.8	25.8	89	23.0	0	0	---	0.00	30.087 
03:10	25.6	25.6	25.6	89	22.8	0	0	---	0.00	30.087 
03:15	25.6	25.6	25.6	89	22.8	0	0	---	0.00	30.084 
03:20	25.4	25.4	25.4	89	22.6	0	0	---	0.00	30.084 
03:25	25.3	25.3	25.3	89	22.5	0	0	---	0.00	30.084 
03:30	25.1	25.1	25.1	89	22.3	0	0	---	0.00	30.081 
03:35	24.8	24.8	24.8	89	22.0	0	0	---	0.00	30.081 
03:40	24.7	24.7	24.7	90	22.2	0	0	---	0.00	30.081 
03:45	24.5	24.5	24.5	90	22.0	0	0	---	0.00	30.077 
03:50	24.4	24.4	24.4	90	21.9	0	0	---	0.00	30.077 
03:55	24.4	24.4	24.4	90	21.9	0	0	---	0.00	30.077 
04:00	24.2	24.2	24.2	90	21.7	0	0	---	0.00	30.080 
04:05	24.1	24.1	24.1	90	21.6	0	0	---	0.00	30.080 
04:10	23.8	23.8	23.8	90	21.3	0	0	---	0.00	30.080 
04:15	23.6	23.6	23.6	90	21.1	0	0	---	0.00	30.074 
04:20	23.3	23.3	23.3	90	20.8	0	0	---	0.00	30.074 
04:25	23.2	23.2	23.2	90	20.7	0	0	---	0.00	30.074 
04:30	23.0	23.0	23.0	90	20.5	0	0	---	0.00	30.077 
04:35	22.9	22.9	22.9	90	20.4	0	0	---	0.00	30.077 
04:40	22.5	22.5	22.5	90	20.0	0	0	---	0.00	30.077 
04:45	22.4	22.4	22.4	90	19.9	0	0	---	0.00	30.073 
04:50	22.2	22.2	22.2	90	19.7	0	0	---	0.00	30.073 
04:55	22.2	22.2	22.2	90	19.7	0	0	---	0.00	30.073 
05:00	22.2	22.2	22.2	90	19.7	0	0	---	0.00	30.074 
05:05	22.1	22.1	22.1	90	19.6	0	0	---	0.00	30.074 
05:10	22.1	22.1	22.1	90	19.6	0	0	---	0.00	30.074 
05:15	22.1	22.1	22.1	90	19.6	0	0	---	0.00	30.076 
05:20	21.9	21.9	21.9	90	19.4	0	0	---	0.00	30.076 
05:25	21.8	21.8	21.8	90	19.3	0	0	---	0.00	30.076 
05:30	21.6	21.6	21.6	90	19.1	0	0	---	0.00	30.073 
05:35	21.4	21.4	21.4	90	18.9	0	0	---	0.00	30.073 
05:40	21.4	21.4	21.4	91	19.2	0	0	---	0.00	30.073 
05:45	21.4	21.4	21.4	91	19.2	0	0	---	0.00	30.076 
05:50	21.6	21.6	21.6	91	19.4	0	0	---	0.00	30.076 
05:55	21.6	21.6	21.6	91	19.4	0	0	---	0.00	30.076 
06:00	21.6	21.6	21.6	91	19.4	0	0	---	0.00	30.074 
06:05	21.6	21.6	21.6	91	19.4	0	0	---	0.00	30.074 
06:10	21.6	21.6	21.6	91	19.4	0	0	---	0.00	30.074 
06:15	21.6	21.6	21.6	91	19.4	0	0	---	0.00	30.078 
06:20	21.4	21.4	21.4	91	19.2	0	0	---	0.00	30.078 
06:25	21.4	21.4	21.4	91	19.2	0	0	---	0.00	30.078 
06:30	21.3	21.3	21.3	91	19.1	0	0	---	0.00	30.080 
06:35	21.1	21.1	21.1	91	18.9	0	0	---	0.00	30.080 
06:40	21.1	21.1	21.1	91	18.9	0	0	---	0.00	30.080 
06:45	21.1	21.1	21.1	91	18.9	0	0	---	0.00	30.083 
06:50	21.1	21.1	21.1	91	18.9	0	0	---	0.00	30.083 
06:55	21.1	21.1	21.1	91	18.9	0	0	---	0.00	30.083 
07:00	21.1	21.1	21.1	91	18.9	0	0	---	0.00	30.091 
07:05	21.1	21.1	21.1	91	18.9	0	0	---	0.00	30.091 
07:10	21.1	21.1	21.1	91	18.9	0	0	---	0.00	30.091 
07:15	21.1	21.1	21.1	91	18.9	0	0	---	0.00	30.094 
07:20	21.1	21.1	21.1	91	18.9	0	0	---	0.00	30.094 
07:25	21.0	21.0	21.0	91	18.8	0	0	---	0.00	30.094 
07:30	21.0	21.0	21.0	91	18.8	0	0	---	0.00	30.097 
07:35	21.1	21.1	21.1	91	18.9	0	0	---	0.00	30.097 
07:40	21.4	21.4	21.4	92	19.4	0	0	---	0.00	30.097 
07:45	21.8	21.8	21.8	92	19.8	0	0	---	0.00	30.098 
07:50	21.9	21.9	21.9	92	19.9	0	0	---	0.00	30.098 
07:55	22.2	22.2	22.2	92	20.2	0	0	---	0.00	30.098 
08:00	22.5	22.5	22.5	92	20.5	0	0	---	0.00	30.095 
08:05	23.3	23.3	23.3	93	21.6	0	0	---	0.00	30.095 
08:10	24.1	24.1	24.1	93	22.4	0	0	---	0.00	30.095 
08:15	24.7	24.7	24.7	93	23.0	0	1	292	0.00	30.091 
08:20	25.1	25.1	25.1	93	23.4	0	1	292	0.00	30.091 
08:25	25.4	25.4	25.4	92	23.4	0	2	292	0.00	30.091 
08:30	25.8	25.8	25.8	92	23.8	0	2	22	0.00	30.090 
08:35	26.3	26.3	26.3	92	24.3	0	2	22	0.00	30.090 
08:40	26.6	26.6	26.6	91	24.3	1	4	68	0.00	30.090 
08:45	27.0	27.0	27.0	90	24.5	1	3	90	0.00	30.083 
08:50	27.5	27.5	27.5	89	24.7	1	4	112	0.00	30.083 
08:55	27.8	27.8	27.8	86	24.2	1	6	135	0.00	30.083 
09:00	28.1	28.1	28.1	85	24.2	0	3	22	0.00	30.084 
09:05	28.4	28.4	28.4	84	24.2	0	3	0	0.00	30.084 
09:10	28.5	28.5	28.5	83	24.0	0	2	0	0.00	30.084 
09:15	28.8	28.8	28.8	82	24.0	1	4	68	0.00	30.088 
09:20	29.3	29.3	29.3	81	24.2	1	5	90	0.00	30.088 
09:25	29.5	29.5	29.5	79	23.8	2	9	90	0.00	30.088 
09:30	29.7	29.7	29.7	79	24.0	1	3	68	0.00	30.087 
09:35	30.1	30.1	30.1	78	24.1	1	5	22	0.00	30.087 
09:40	30.3	30.3	30.3	77	24.0	2	6	112	0.00	30.087 
09:45	30.4	30.4	30.4	77	24.1	2	6	90	0.00	30.077 
09:50	30.4	30.4	30.4	76	23.8	1	3	135	0.00	30.077 
09:55	30.0	30.0	30.0	76	23.4	1	4	68	0.00	30.077 
10:00	29.5	29.5	29.5	77	23.2	1	4	90	0.00	30.072 
10:05	28.8	28.8	28.8	79	23.1	3	6	90	0.00	30.072 
10:10	28.5	28.5	28.5	80	23.1	2	9	90	0.00	30.072 
10:15	27.9	27.9	27.9	81	22.8	3	10	112	0.00	30.075 
10:20	28.1	28.1	28.1	82	23.3	2	4	135	0.00	30.075 
10:25	27.8	27.8	27.8	82	23.0	1	5	135	0.00	30.075 
10:30	27.5	27.5	27.5	82	22.7	1	6	68	0.00	30.074 
10:35	27.2	27.2	27.2	83	22.7	3	6	112	0.00	30.074 
10:40	27.2	27.2	27.2	84	23.0	2	5	112	0.00	30.074 
10:45	27.0	27.0	27.0	84	22.8	2	7	112	0.00	30.077 
10:50	27.0	27.0	27.0	84	22.8	3	7	112	0.00	30.077 
10:55	26.7	26.7	26.7	84	22.5	2	6	90	0.00	30.077 
11:00	27.0	27.0	27.0	85	23.1	0	2	338	0.00	30.079 
11:05	26.9	26.9	26.9	84	22.7	2	5	90	0.00	30.079 
11:10	26.7	26.7	26.7	85	22.8	3	7	112	0.00	30.079 
11:15	26.7	26.7	26.7	85	22.8	1	4	90	0.00	30.078 
11:20	27.0	27.0	27.0	86	23.4	1	3	90	0.00	30.078 
11:25	27.3	27.3	27.3	85	23.4	1	3	90	0.00	30.078 
11:30	27.5	27.5	27.5	85	23.6	0	1	45	0.00	30.067 
11:35	27.6	27.6	27.6	85	23.7	0	2	45	0.00	30.067 
11:40	27.8	27.8	27.8	84	23.6	0	2	22	0.00	30.067 
11:45	27.8	27.8	27.8	84	23.6	1	3	22	0.00	30.061 
11:50	27.9	27.9	27.9	84	23.7	1	6	68	0.00	30.061 
11:55	27.9	27.9	27.9	84	23.7	2	7	112	0.00	30.061 
12:00	27.9	27.9	27.9	84	23.7	1	3	68	0.00	30.066 
12:05	28.1	28.1	28.1	84	23.9	1	6	112	0.00	30.066 
12:10	28.4	28.4	28.4	84	24.2	1	3	112	0.00	30.066 
12:15	28.5	28.5	28.5	84	24.3	1	6	112	0.00	30.062 
12:20	28.7	28.7	28.7	83	24.2	0	3	45	0.00	30.062 
12:25	28.8	28.8	28.8	83	24.3	1	4	112	0.00	30.062 
12:30	28.8	28.8	28.8	83	24.3	1	4	68	0.00	30.053 
12:35	29.0	29.0	29.0	83	24.5	1	3	22	0.00	30.053 
12:40	29.1	29.1	29.1	83	24.6	1	3	22	0.00	30.053 
12:45	29.4	29.4	29.4	83	24.9	1	5	45	0.00	30.050 
12:50	29.4	29.4	29.4	82	24.6	1	6	68	0.00	30.050 
12:55	29.5	29.5	29.5	82	24.7	1	4	45	0.00	30.050 
13:00	29.5	29.5	29.5	82	24.7	2	5	68	0.00	30.046 
13:05	29.4	29.4	29.4	82	24.6	2	7	112	0.00	30.046 
13:10	29.4	29.4	29.4	83	24.9	1	4	112	0.00	30.046 
13:15	29.4	29.4	29.4	82	24.6	2	6	112	0.00	30.043 
13:20	29.1	29.1	29.1	83	24.6	3	6	112	0.00	30.043 
13:25	29.1	29.1	29.1	83	24.6	2	4	112	0.00	30.043 
13:30	29.1	29.1	29.1	84	24.9	3	6	112	0.00	30.040 
13:35	28.8	28.8	28.8	84	24.6	3	5	90	0.00	30.040 
13:40	28.7	28.7	28.7	85	24.8	2	5	90	0.00	30.040 
13:45	29.0	29.0	29.0	84	24.8	2	6	112	0.00	30.033 
13:50	29.0	29.0	29.0	84	24.8	2	5	90	0.00	30.033 
13:55	29.1	29.1	29.1	84	24.9	1	5	90	0.00	30.033 
14:00	29.3	29.3	29.3	84	25.1	1	3	112	0.00	30.030 
14:05	29.3	29.3	29.3	84	25.1	1	3	112	0.00	30.030 
14:10	29.4	29.4	29.4	84	25.2	1	5	90	0.00	30.030 
14:15	29.4	29.4	29.4	83	24.9	1	3	45	0.00	30.030 
14:20	29.4	29.4	29.4	84	25.2	2	4	90	0.00	30.030 
14:25	29.3	29.3	29.3	84	25.1	1	4	90	0.00	30.030 
14:30	29.0	29.0	29.0	84	24.8	3	7	112	0.00	30.033 
14:35	28.8	28.8	28.8	84	24.6	2	4	90	0.00	30.033 
14:40	28.8	28.8	28.8	85	24.9	1	3	90	0.00	30.033 
14:45	29.0	29.0	29.0	84	24.8	2	5	112	0.00	30.035 
14:50	29.0	29.0	29.0	85	25.1	2	6	112	0.00	30.035 
14:55	29.1	29.1	29.1	85	25.2	1	5	112	0.00	30.035 
15:00	29.0	29.0	29.0	84	24.8	2	6	112	0.00	30.033 
15:05	29.1	29.1	29.1	84	24.9	2	6	112	0.00	30.033 
15:10	29.1	29.1	29.1	84	24.9	3	7	90	0.00	30.033 
15:15	29.3	29.3	29.3	83	24.8	2	5	90	0.00	30.034 
15:20	29.1	29.1	29.1	84	24.9	2	4	90	0.00	30.034 
15:25	29.3	29.3	29.3	84	25.1	1	5	90	0.00	30.034 
15:30	29.0	29.0	29.0	84	24.8	2	5	90	0.00	30.032 
15:35	28.8	28.8	28.8	84	24.6	2	5	90	0.00	30.032 
15:40	29.0	29.0	29.0	85	25.1	2	5	90	0.00	30.032 
15:45	29.1	29.1	29.1	84	24.9	1	4	112	0.00	30.024 
15:50	29.4	29.4	29.4	83	24.9	2	5	112	0.00	30.024 
15:55	29.8	29.8	29.8	83	25.3	1	3	112	0.00	30.024 
16:00	30.0	30.0	30.0	82	25.2	0	2	112	0.00	30.017 
16:05	30.1	30.1	30.1	81	25.0	1	4	112	0.00	30.017 
16:10	30.3	30.3	30.3	80	24.9	2	4	112	0.00	30.017 
16:15	30.3	30.3	30.3	81	25.2	1	3	90	0.00	30.018 
16:20	30.4	30.4	30.4	80	25.0	0	2	270	0.00	30.018 
16:25	30.7	30.7	30.7	80	25.3	0	2	270	0.00	30.018 
16:30	31.0	31.0	31.0	79	25.3	0	3	68	0.00	30.010 
16:35	31.2	31.2	31.2	79	25.5	0	1	68	0.00	30.010 
16:40	31.5	31.5	31.5	78	25.4	0	2	68	0.00	30.010 
16:45	31.6	31.6	31.6	78	25.5	0	3	68	0.00	30.002 
16:50	31.6	31.6	31.6	77	25.2	0	3	68	0.00	30.002 
16:55	31.8	31.8	31.8	78	25.7	0	1	68	0.00	30.002 
17:00	31.9	31.9	31.9	77	25.5	0	1	68	0.00	30.001 
17:05	31.9	31.9	31.9	77	25.5	0	2	68	0.00	30.001 
17:10	32.1	32.1	32.1	77	25.7	0	1	68	0.00	30.001 
17:15	32.1	32.1	32.1	76	25.4	0	3	68	0.00	29.996 
17:20	32.1	32.1	32.1	76	25.4	0	2	68	0.00	29.996 
17:25	32.1	32.1	32.1	76	25.4	0	1	68	0.00	29.996 
17:30	31.9	31.9	31.9	76	25.2	0	1	68	0.00	29.993 
17:35	31.9	31.9	31.9	75	24.9	0	1	68	0.00	29.993 
17:40	31.8	31.8	31.8	76	25.1	0	1	68	0.00	29.993 
17:45	31.5	31.5	31.5	75	24.5	0	2	68	0.00	29.989 
17:50	31.5	31.5	31.5	75	24.5	0	2	68	0.00	29.989 
17:55	31.5	31.5	31.5	75	24.5	0	1	45	0.00	29.989 
18:00	31.3	31.3	31.3	75	24.3	0	1	45	0.00	29.989 
18:05	31.3	31.3	31.3	75	24.3	0	2	45	0.00	29.989 
18:10	31.2	31.2	31.2	75	24.2	0	0	---	0.00	29.989 
18:15	31.0	31.0	31.0	75	24.0	0	0	---	0.00	29.988 
18:20	30.9	30.9	30.9	75	23.9	0	1	45	0.00	29.988 
18:25	30.7	30.7	30.7	75	23.7	0	0	---	0.00	29.988 
18:30	30.6	30.6	30.6	76	24.0	0	0	---	0.00	29.990 
18:35	30.4	30.4	30.4	76	23.8	0	0	---	0.00	29.990 
18:40	30.1	30.1	30.1	77	23.8	0	0	---	0.00	29.990 
18:45	30.0	30.0	30.0	77	23.7	0	0	---	0.00	29.992 
18:50	29.8	29.8	29.8	77	23.5	0	0	---	0.00	29.992 
18:55	29.5	29.5	29.5	77	23.2	0	0	---	0.00	29.992 
19:00	29.4	29.4	29.4	78	23.4	0	0	---	0.00	29.995 
19:05	29.1	29.1	29.1	78	23.1	0	0	---	0.00	29.995 
19:10	29.0	29.0	29.0	79	23.3	0	0	---	0.00	29.995 
19:15	28.8	28.8	28.8	79	23.1	0	0	---	0.00	29.994 
19:20	28.7	28.7	28.7	80	23.3	0	0	---	0.00	29.994 
19:25	28.5	28.5	28.5	80	23.1	0	0	---	0.00	29.994 
19:30	28.5	28.5	28.5	81	23.4	0	0	---	0.00	29.998 
19:35	28.4	28.4	28.4	81	23.3	0	0	---	0.00	29.998 
19:40	28.2	28.2	28.2	81	23.1	0	0	---	0.00	29.998 
19:45	28.2	28.2	28.2	81	23.1	0	0	---	0.00	29.996 
19:50	28.2	28.2	28.2	81	23.1	0	0	---	0.00	29.996 
19:55	28.1	28.1	28.1	82	23.3	0	1	45	0.00	29.996 
20:00	28.1	28.1	28.1	82	23.3	0	1	45	0.00	29.992 
20:05	28.2	28.2	28.2	82	23.4	0	1	45	0.00	29.992 
20:10	28.4	28.4	28.4	82	23.6	0	2	45	0.00	29.992 
20:15	28.7	28.7	28.7	82	23.9	0	1	45	0.00	29.985 
20:20	29.0	29.0	29.0	82	24.2	0	1	45	0.00	29.985 
20:25	29.1	29.1	29.1	81	24.0	0	1	45	0.00	29.985 
20:30	29.4	29.4	29.4	81	24.3	0	1	45	0.00	29.985 
20:35	29.5	29.5	29.5	81	24.4	0	1	45	0.00	29.985 
20:40	29.5	29.5	29.5	80	24.1	0	0	---	0.00	29.985 
20:45	29.4	29.4	29.4	79	23.7	0	1	45	0.00	29.984 
20:50	29.3	29.3	29.3	79	23.6	0	1	45	0.00	29.984 
20:55	29.1	29.1	29.1	79	23.4	0	1	45	0.00	29.984 
21:00	29.0	29.0	29.0	79	23.3	0	1	45	0.00	29.983 
21:05	28.8	28.8	28.8	79	23.1	0	1	45	0.00	29.983 
21:10	28.7	28.7	28.7	80	23.3	0	1	45	0.00	29.983 
21:15	28.7	28.7	28.7	80	23.3	0	1	45	0.00	29.981 
21:20	28.5	28.5	28.5	80	23.1	0	1	45	0.00	29.981 
21:25	28.5	28.5	28.5	80	23.1	0	2	22	0.00	29.981 
21:30	28.4	28.4	28.4	80	23.0	0	1	22	0.00	29.982 
21:35	28.2	28.2	28.2	80	22.8	0	1	22	0.00	29.982 
21:40	28.1	28.1	28.1	80	22.7	0	0	---	0.00	29.982 
21:45	27.9	27.9	27.9	80	22.5	0	2	22	0.00	29.983 
21:50	27.9	27.9	27.9	80	22.5	0	0	---	0.00	29.983 
21:55	27.8	27.8	27.8	81	22.7	0	0	---	0.00	29.983 
22:00	27.6	27.6	27.6	81	22.5	0	0	---	0.00	29.982 
22:05	27.5	27.5	27.5	81	22.4	0	0	---	0.00	29.982 
22:10	27.3	27.3	27.3	81	22.3	0	1	22	0.00	29.982 
22:15	27.3	27.3	27.3	81	22.3	0	0	---	0.00	29.987 
22:20	27.2	27.2	27.2	81	22.2	0	0	---	0.00	29.987 
22:25	27.2	27.2	27.2	81	22.2	0	0	---	0.00	29.987 
22:30	27.2	27.2	27.2	81	22.2	0	0	---	0.00	29.987 
22:35	27.2	27.2	27.2	81	22.2	0	1	22	0.00	29.987 
22:40	27.3	27.3	27.3	81	22.3	0	1	22	0.00	29.987 
22:45	27.5	27.5	27.5	81	22.4	0	0	---	0.00	29.986 
22:50	27.8	27.8	27.8	81	22.7	0	0	---	0.00	29.986 
22:55	27.9	27.9	27.9	81	22.8	0	0	---	0.00	29.986 
23:00	28.1	28.1	28.1	81	23.0	0	0	---	0.00	29.987 
23:05	28.4	28.4	28.4	80	23.0	0	1	22	0.00	29.987 
23:10	28.7	28.7	28.7	79	23.0	0	1	22	0.00	29.987 
23:15	29.0	29.0	29.0	78	23.0	0	1	22	0.00	29.984 
23:20	29.3	29.3	29.3	77	23.0	0	1	22	0.00	29.984 
23:25	29.5	29.5	29.5	76	22.9	0	0	---	0.00	29.984 
23:30	29.8	29.8	29.8	75	22.9	0	0	---	0.00	29.981 
23:35	30.0	30.0	30.0	74	22.7	0	1	22	0.00	29.981 
23:40	30.1	30.1	30.1	73	22.5	0	2	22	0.00	29.981 
23:45	30.4	30.4	30.4	72	22.5	0	3	22	0.00	29.979 
23:50	30.6	30.6	30.6	71	22.3	0	1	315	0.00	29.979 
23:55	30.7	30.7	30.7	71	22.4	0	2	315	0.00	29.979 

CoCoRaHS
IN-AL-39
A2 Web Hosting
Creative Commons License
GoDaddy
search engine by freefind advanced

loaded 2018-11-20 06:34:55 • last modified 2010-11-18 10:43:29
Privacy PolicyDisclaimer
• wx.awcolley.com is powered by PmWiki v.2002016 •
• all content (unless otherwise noted) © 2018 A W Colley